Mauna Loa — WDC2819 — position and weather

sailwx.info

Track history (hours):
 
Tides and Currents Weather Stations Pressure Air Temp Water Temp Dewpoint Dewpoint Depression Visibility Wind Speed Wind Dir Waves Ship Positions

Mauna Loa

Owner: Salmon Bay Barge Line, Inc., Seattle, WA. More information available from US FCC via Universal Licensing System and Coast Guard Vessel Documentation Center.

Last reported at 2018-Apr-19 00:05 UTC. Time now 2018-Apr-20 10:54 UTC.
Position N 47°33' W 122°21'.

Length 37 m; draft 4.6 m.

Type: Tow > 200 m length. MMSI: 366998090.

Date/timePositionNaut miles runAvg speedWind from/ knotsBaromVisibWave heightAir tempDewpointWater temp
2018-Apr-19 00:05N 47°33' W 122°21'0 0.3
2018-Apr-18 23:57N 47°33' W 122°21'0 0.2
2018-Apr-18 23:30N 47°33' W 122°21'2 3.5
2018-Apr-18 23:00N 47°35' W 122°22'0 0.8
2018-Apr-18 22:30N 47°35' W 122°21'0 0.0
2018-Apr-18 22:00N 47°35' W 122°21'0 0.0
2018-Apr-18 21:29N 47°35' W 122°21'0 0.0
2018-Apr-18 21:01N 47°35' W 122°21'0 0.0
2018-Apr-18 20:30N 47°35' W 122°21'0 0.8
2018-Apr-18 20:00N 47°35' W 122°22'  
2018-Apr-14 16:19N 47°33' W 122°21'0 0.0
2018-Apr-14 15:55N 47°33' W 122°21'2 4.0
2018-Apr-14 15:30N 47°35' W 122°22'2 4.8
2018-Apr-14 15:00N 47°37' W 122°24'3 6.7
2018-Apr-14 14:30N 47°39' W 122°28'3 6.0
2018-Apr-14 14:00N 47°42' W 122°28'3 6.1
2018-Apr-14 13:30N 47°45' W 122°27'3 6.5
2018-Apr-14 13:00N 47°48' W 122°28'4 7.3
2018-Apr-14 12:30N 47°52' W 122°29'4 7.5
2018-Apr-14 12:00N 47°55' W 122°31'4 7.9
2018-Apr-14 11:30N 47°58' W 122°35'10 7.9
2018-Apr-14 10:11N 48°07' W 122°41'410.3
2018-Apr-14 09:50N 48°10' W 122°45'5 7.6
2018-Apr-14 09:12N 48°14' W 122°49'1 4.8
2018-Apr-14 08:58N 48°15' W 122°49'4 6.5
2018-Apr-14 08:25N 48°18' W 122°47'3 7.2
2018-Apr-14 08:00N 48°21' W 122°46'3 6.9
2018-Apr-14 07:30N 48°24' W 122°45'4 7.3
2018-Apr-14 07:00N 48°28' W 122°45'4 7.8
2018-Apr-14 06:30N 48°32' W 122°45'4 8.1
2018-Apr-14 06:00N 48°36' W 122°45'4 8.1
2018-Apr-14 05:30N 48°40' W 122°44'4 8.1
2018-Apr-14 04:59N 48°44' W 122°47'7 8.0
2018-Apr-14 04:08N 48°48' W 122°55'11 7.7
2018-Apr-14 02:46N 48°54' W 123°08'8 7.8
2018-Apr-14 01:40N 48°60' W 123°17'1 7.1
2018-Apr-14 01:30N 49°01' W 123°19'3 6.6
2018-Apr-14 01:00N 49°04' W 123°20'3 5.4
2018-Apr-14 00:26N 49°07' W 123°17'2 5.3
2018-Apr-14 00:00N 49°08' W 123°15'3 5.2
2018-Apr-13 23:28N 49°07' W 123°11'3 5.5
2018-Apr-13 23:00N 49°07' W 123°07'3 5.5
2018-Apr-13 22:30N 49°08' W 123°03'2 4.4
2018-Apr-13 22:00N 49°09' W 123°00'0 0.1
2018-Apr-13 21:30N 49°09' W 123°00'0 0.0
2018-Apr-13 21:00N 49°09' W 123°00'0 0.0
2018-Apr-13 20:29N 49°09' W 123°00'0 0.0
2018-Apr-13 20:00N 49°09' W 123°00'0 0.0
2018-Apr-13 19:30N 49°09' W 123°00'0 0.0
2018-Apr-13 18:57N 49°09' W 123°00'0 0.0
2018-Apr-13 18:30N 49°09' W 123°00'0 0.0
2018-Apr-13 18:00N 49°09' W 123°00'0 0.0
2018-Apr-13 17:30N 49°09' W 123°00'0 0.0
2018-Apr-13 16:58N 49°09' W 123°00'0 0.0
2018-Apr-13 16:28N 49°09' W 123°00'0 0.0
2018-Apr-13 15:58N 49°09' W 123°00'0 0.0
2018-Apr-13 15:29N 49°09' W 123°00'0 0.0
2018-Apr-13 14:59N 49°09' W 123°00'0 0.0
2018-Apr-13 14:29N 49°09' W 123°00'0 0.0
2018-Apr-13 14:00N 49°09' W 123°00'0 0.0
2018-Apr-13 13:30N 49°09' W 123°00'0 0.0
2018-Apr-13 13:00N 49°09' W 123°00'0 0.0
2018-Apr-13 12:30N 49°09' W 123°00'0 0.0
2018-Apr-13 11:58N 49°09' W 123°00'0 0.0
2018-Apr-13 11:28N 49°09' W 123°00'0 0.0
2018-Apr-13 10:58N 49°09' W 123°00'0 0.0
2018-Apr-13 10:29N 49°09' W 123°00'0 0.0
2018-Apr-13 09:59N 49°09' W 123°00'0 0.0
2018-Apr-13 09:29N 49°09' W 123°00'0 0.0
2018-Apr-13 09:00N 49°09' W 123°00'0 0.0
2018-Apr-13 08:30N 49°09' W 123°00'0 0.0
2018-Apr-13 08:00N 49°09' W 123°00'0 0.0
2018-Apr-13 07:28N 49°09' W 123°00'0 0.0
2018-Apr-13 06:58N 49°09' W 123°00'0 0.0
2018-Apr-13 06:28N 49°09' W 123°00'0 0.0
2018-Apr-13 05:59N 49°09' W 123°00'0 0.0
2018-Apr-13 05:29N 49°09' W 123°00'0 0.0
2018-Apr-13 04:59N 49°09' W 123°00'0 0.0
2018-Apr-13 04:30N 49°09' W 123°00'0 0.0
2018-Apr-13 04:00N 49°09' W 123°00'0 0.0
2018-Apr-13 03:30N 49°09' W 123°00'0 0.0
2018-Apr-13 02:58N 49°09' W 123°00'0 0.0
2018-Apr-13 02:28N 49°09' W 123°00'0 0.0
2018-Apr-13 01:58N 49°09' W 123°00'0 0.0
2018-Apr-13 01:29N 49°09' W 123°00'0 0.0
2018-Apr-13 00:59N 49°09' W 123°00'0 0.0
2018-Apr-13 00:29N 49°09' W 123°00'0 0.0
2018-Apr-13 00:00N 49°09' W 123°00'0 0.0
2018-Apr-12 23:30N 49°09' W 123°00'0 0.0
2018-Apr-12 23:00N 49°09' W 123°00'0 0.0
2018-Apr-12 22:28N 49°09' W 123°00'0 0.0
2018-Apr-12 21:58N 49°09' W 123°00'0 0.0
2018-Apr-12 21:28N 49°09' W 123°00'0 0.0
2018-Apr-12 20:59N 49°09' W 123°00'0 0.0
2018-Apr-12 20:29N 49°09' W 123°00'0 0.0
2018-Apr-12 19:59N 49°09' W 123°00'0 0.0
2018-Apr-12 19:30N 49°09' W 123°00'0 0.0
2018-Apr-12 19:00N 49°09' W 123°00'0 0.0
2018-Apr-12 18:30N 49°09' W 123°00'0 0.0
2018-Apr-12 17:58N 49°09' W 123°00'0 0.0
2018-Apr-12 17:28N 49°09' W 123°00'0 0.0
2018-Apr-12 16:58N 49°09' W 123°00'0 0.0
2018-Apr-12 16:29N 49°09' W 123°00'0 0.0
2018-Apr-12 15:59N 49°09' W 123°00'0 0.0
2018-Apr-12 15:29N 49°09' W 123°00'0 0.0
2018-Apr-12 15:00N 49°09' W 123°00'0 0.0
2018-Apr-12 14:30N 49°09' W 123°00'0 0.0
2018-Apr-12 14:00N 49°09' W 123°00'0 0.0
2018-Apr-12 13:28N 49°09' W 123°00'0 0.0
2018-Apr-12 12:58N 49°09' W 123°00'0 0.0
2018-Apr-12 12:28N 49°09' W 123°00'0 0.0
2018-Apr-12 11:59N 49°09' W 123°00'0 0.0
2018-Apr-12 11:29N 49°09' W 123°00'0 0.0
2018-Apr-12 10:59N 49°09' W 123°00'0 0.0
2018-Apr-12 10:30N 49°09' W 123°00'0 0.0
2018-Apr-12 10:00N 49°09' W 123°00'0 0.0
2018-Apr-12 09:30N 49°09' W 123°00'0 0.0
2018-Apr-12 08:58N 49°09' W 123°00'0 0.0
2018-Apr-12 08:28N 49°09' W 123°00'0 0.0
2018-Apr-12 07:58N 49°09' W 123°00'0 0.0
2018-Apr-12 07:29N 49°09' W 123°00'0 0.0
2018-Apr-12 06:59N 49°09' W 123°00'0 0.1
2018-Apr-12 06:29N 49°09' W 123°00'0 0.0
2018-Apr-12 06:00N 49°09' W 123°00'0 0.0
2018-Apr-12 05:30N 49°09' W 123°00'0 0.0
2018-Apr-12 05:00N 49°09' W 123°00'0 0.0
2018-Apr-12 04:28N 49°09' W 123°00'0 0.0
2018-Apr-12 03:58N 49°09' W 123°00'0 0.0
2018-Apr-12 03:28N 49°09' W 123°00'0 0.0
2018-Apr-12 02:59N 49°09' W 123°00'0 0.0
2018-Apr-12 02:29N 49°09' W 123°00'0 0.0
2018-Apr-12 01:59N 49°09' W 123°00'0 0.0
2018-Apr-12 01:30N 49°09' W 123°00'0 0.0
2018-Apr-12 01:00N 49°09' W 123°00'0 0.0
2018-Apr-12 00:30N 49°09' W 123°00'0 0.0
2018-Apr-11 23:58N 49°09' W 123°00'0 0.0
2018-Apr-11 23:28N 49°09' W 123°00'0 0.0
2018-Apr-11 22:58N 49°09' W 123°00'0 0.0
2018-Apr-11 22:29N 49°09' W 123°00'0 0.0
2018-Apr-11 21:59N 49°09' W 123°00'0 0.0
2018-Apr-11 21:29N 49°09' W 123°00'0 0.0
2018-Apr-11 21:00N 49°09' W 123°00'0 0.0
2018-Apr-11 20:30N 49°09' W 123°00'0 0.0
2018-Apr-11 20:00N 49°09' W 123°00'0 0.0
2018-Apr-11 19:28N 49°09' W 123°00'0 0.0
2018-Apr-11 18:58N 49°09' W 123°00'0 0.0
2018-Apr-11 18:28N 49°09' W 123°00'0 0.0
2018-Apr-11 17:59N 49°09' W 123°00'0 0.0
2018-Apr-11 17:29N 49°09' W 123°00'0 0.0
2018-Apr-11 16:59N 49°09' W 123°00'0 0.0
2018-Apr-11 16:30N 49°09' W 123°00'0 0.0
2018-Apr-11 16:00N 49°09' W 123°00'0 0.0
2018-Apr-11 15:30N 49°09' W 123°00'0 0.0
2018-Apr-11 14:58N 49°09' W 123°00'0 0.0
2018-Apr-11 14:28N 49°09' W 123°00'0 0.0
2018-Apr-11 13:58N 49°09' W 123°00'0 0.0
2018-Apr-11 13:29N 49°09' W 123°00'0 0.0
2018-Apr-11 13:00N 49°09' W 123°00'0 0.1
2018-Apr-11 12:30N 49°09' W 123°00'0 0.2
2018-Apr-11 12:01N 49°09' W 123°00'1 1.9
2018-Apr-11 11:30N 49°09' W 123°02'3 5.0
2018-Apr-11 11:00N 49°07' W 123°05'3 5.3
2018-Apr-11 10:31N 49°06' W 123°08'3 5.8
2018-Apr-11 10:00N 49°08' W 123°12'3 5.0
2018-Apr-11 09:30N 49°07' W 123°16'3 6.2
2018-Apr-11 09:00N 49°05' W 123°19'10 6.6
2018-Apr-11 07:30N 48°58' W 123°09'62 6.5
2018-Apr-10 21:51N 47°59' W 122°35'3 9.2
2018-Apr-10 21:30N 47°57' W 122°32'4 8.5
2018-Apr-10 21:01N 47°54' W 122°28'4 9.0
2018-Apr-10 20:31N 47°49' W 122°27'4 9.0
2018-Apr-10 20:01N 47°45' W 122°26'5 9.1
2018-Apr-10 19:30N 47°41' W 122°27'4 8.2
2018-Apr-10 19:01N 47°37' W 122°24'3 5.3
2018-Apr-10 18:31N 47°35' W 122°22'  
Track history (hours):
 
Tides and Currents Weather Stations Pressure Air Temp Water Temp Dewpoint Dewpoint Depression Visibility Wind Speed Wind Dir Waves Ship Positions

Mauna Loa

Owner: Salmon Bay Barge Line, Inc., Seattle, WA. More information available from US FCC via Universal Licensing System and Coast Guard Vessel Documentation Center.

Last reported at 2018-Apr-19 00:05 UTC. Time now 2018-Apr-20 10:54 UTC.
Position N 47°33' W 122°21'.

Length 37 m; draft 4.6 m.

Type: Tow > 200 m length. MMSI: 366998090.

Date/timePositionNaut miles runAvg speedWind from/ knotsBaromVisibWave heightAir tempDewpointWater temp
2018-Apr-19 00:05N 47°33' W 122°21'0 0.3
2018-Apr-18 23:57N 47°33' W 122°21'0 0.2
2018-Apr-18 23:30N 47°33' W 122°21'2 3.5
2018-Apr-18 23:00N 47°35' W 122°22'0 0.8
2018-Apr-18 22:30N 47°35' W 122°21'0 0.0
2018-Apr-18 22:00N 47°35' W 122°21'0 0.0
2018-Apr-18 21:29N 47°35' W 122°21'0 0.0
2018-Apr-18 21:01N 47°35' W 122°21'0 0.0
2018-Apr-18 20:30N 47°35' W 122°21'0 0.8
2018-Apr-18 20:00N 47°35' W 122°22'  
2018-Apr-14 16:19N 47°33' W 122°21'0 0.0
2018-Apr-14 15:55N 47°33' W 122°21'2 4.0
2018-Apr-14 15:30N 47°35' W 122°22'2 4.8
2018-Apr-14 15:00N 47°37' W 122°24'3 6.7
2018-Apr-14 14:30N 47°39' W 122°28'3 6.0
2018-Apr-14 14:00N 47°42' W 122°28'3 6.1
2018-Apr-14 13:30N 47°45' W 122°27'3 6.5
2018-Apr-14 13:00N 47°48' W 122°28'4 7.3
2018-Apr-14 12:30N 47°52' W 122°29'4 7.5
2018-Apr-14 12:00N 47°55' W 122°31'4 7.9
2018-Apr-14 11:30N 47°58' W 122°35'10 7.9
2018-Apr-14 10:11N 48°07' W 122°41'410.3
2018-Apr-14 09:50N 48°10' W 122°45'5 7.6
2018-Apr-14 09:12N 48°14' W 122°49'1 4.8
2018-Apr-14 08:58N 48°15' W 122°49'4 6.5
2018-Apr-14 08:25N 48°18' W 122°47'3 7.2
2018-Apr-14 08:00N 48°21' W 122°46'3 6.9
2018-Apr-14 07:30N 48°24' W 122°45'4 7.3
2018-Apr-14 07:00N 48°28' W 122°45'4 7.8
2018-Apr-14 06:30N 48°32' W 122°45'4 8.1
2018-Apr-14 06:00N 48°36' W 122°45'4 8.1
2018-Apr-14 05:30N 48°40' W 122°44'4 8.1
2018-Apr-14 04:59N 48°44' W 122°47'7 8.0
2018-Apr-14 04:08N 48°48' W 122°55'11 7.7
2018-Apr-14 02:46N 48°54' W 123°08'8 7.8
2018-Apr-14 01:40N 48°60' W 123°17'1 7.1
2018-Apr-14 01:30N 49°01' W 123°19'3 6.6
2018-Apr-14 01:00N 49°04' W 123°20'3 5.4
2018-Apr-14 00:26N 49°07' W 123°17'2 5.3
2018-Apr-14 00:00N 49°08' W 123°15'3 5.2
2018-Apr-13 23:28N 49°07' W 123°11'3 5.5
2018-Apr-13 23:00N 49°07' W 123°07'3 5.5
2018-Apr-13 22:30N 49°08' W 123°03'2 4.4
2018-Apr-13 22:00N 49°09' W 123°00'0 0.1
2018-Apr-13 21:30N 49°09' W 123°00'0 0.0
2018-Apr-13 21:00N 49°09' W 123°00'0 0.0
2018-Apr-13 20:29N 49°09' W 123°00'0 0.0
2018-Apr-13 20:00N 49°09' W 123°00'0 0.0
2018-Apr-13 19:30N 49°09' W 123°00'0 0.0
2018-Apr-13 18:57N 49°09' W 123°00'0 0.0
2018-Apr-13 18:30N 49°09' W 123°00'0 0.0
2018-Apr-13 18:00N 49°09' W 123°00'0 0.0
2018-Apr-13 17:30N 49°09' W 123°00'0 0.0
2018-Apr-13 16:58N 49°09' W 123°00'0 0.0
2018-Apr-13 16:28N 49°09' W 123°00'0 0.0
2018-Apr-13 15:58N 49°09' W 123°00'0 0.0
2018-Apr-13 15:29N 49°09' W 123°00'0 0.0
2018-Apr-13 14:59N 49°09' W 123°00'0 0.0
2018-Apr-13 14:29N 49°09' W 123°00'0 0.0
2018-Apr-13 14:00N 49°09' W 123°00'0 0.0
2018-Apr-13 13:30N 49°09' W 123°00'0 0.0
2018-Apr-13 13:00N 49°09' W 123°00'0 0.0
2018-Apr-13 12:30N 49°09' W 123°00'0 0.0
2018-Apr-13 11:58N 49°09' W 123°00'0 0.0
2018-Apr-13 11:28N 49°09' W 123°00'0 0.0
2018-Apr-13 10:58N 49°09' W 123°00'0 0.0
2018-Apr-13 10:29N 49°09' W 123°00'0 0.0
2018-Apr-13 09:59N 49°09' W 123°00'0 0.0
2018-Apr-13 09:29N 49°09' W 123°00'0 0.0
2018-Apr-13 09:00N 49°09' W 123°00'0 0.0
2018-Apr-13 08:30N 49°09' W 123°00'0 0.0
2018-Apr-13 08:00N 49°09' W 123°00'0 0.0
2018-Apr-13 07:28N 49°09' W 123°00'0 0.0
2018-Apr-13 06:58N 49°09' W 123°00'0 0.0
2018-Apr-13 06:28N 49°09' W 123°00'0 0.0
2018-Apr-13 05:59N 49°09' W 123°00'0 0.0
2018-Apr-13 05:29N 49°09' W 123°00'0 0.0
2018-Apr-13 04:59N 49°09' W 123°00'0 0.0
2018-Apr-13 04:30N 49°09' W 123°00'0 0.0
2018-Apr-13 04:00N 49°09' W 123°00'0 0.0
2018-Apr-13 03:30N 49°09' W 123°00'0 0.0
2018-Apr-13 02:58N 49°09' W 123°00'0 0.0
2018-Apr-13 02:28N 49°09' W 123°00'0 0.0
2018-Apr-13 01:58N 49°09' W 123°00'0 0.0
2018-Apr-13 01:29N 49°09' W 123°00'0 0.0
2018-Apr-13 00:59N 49°09' W 123°00'0 0.0
2018-Apr-13 00:29N 49°09' W 123°00'0 0.0
2018-Apr-13 00:00N 49°09' W 123°00'0 0.0
2018-Apr-12 23:30N 49°09' W 123°00'0 0.0
2018-Apr-12 23:00N 49°09' W 123°00'0 0.0
2018-Apr-12 22:28N 49°09' W 123°00'0 0.0
2018-Apr-12 21:58N 49°09' W 123°00'0 0.0
2018-Apr-12 21:28N 49°09' W 123°00'0 0.0
2018-Apr-12 20:59N 49°09' W 123°00'0 0.0
2018-Apr-12 20:29N 49°09' W 123°00'0 0.0
2018-Apr-12 19:59N 49°09' W 123°00'0 0.0
2018-Apr-12 19:30N 49°09' W 123°00'0 0.0
2018-Apr-12 19:00N 49°09' W 123°00'0 0.0
2018-Apr-12 18:30N 49°09' W 123°00'0 0.0
2018-Apr-12 17:58N 49°09' W 123°00'0 0.0
2018-Apr-12 17:28N 49°09' W 123°00'0 0.0
2018-Apr-12 16:58N 49°09' W 123°00'0 0.0
2018-Apr-12 16:29N 49°09' W 123°00'0 0.0
2018-Apr-12 15:59N 49°09' W 123°00'0 0.0
2018-Apr-12 15:29N 49°09' W 123°00'0 0.0
2018-Apr-12 15:00N 49°09' W 123°00'0 0.0
2018-Apr-12 14:30N 49°09' W 123°00'0 0.0
2018-Apr-12 14:00N 49°09' W 123°00'0 0.0
2018-Apr-12 13:28N 49°09' W 123°00'0 0.0
2018-Apr-12 12:58N 49°09' W 123°00'0 0.0
2018-Apr-12 12:28N 49°09' W 123°00'0 0.0
2018-Apr-12 11:59N 49°09' W 123°00'0 0.0
2018-Apr-12 11:29N 49°09' W 123°00'0 0.0
2018-Apr-12 10:59N 49°09' W 123°00'0 0.0
2018-Apr-12 10:30N 49°09' W 123°00'0 0.0
2018-Apr-12 10:00N 49°09' W 123°00'0 0.0
2018-Apr-12 09:30N 49°09' W 123°00'0 0.0
2018-Apr-12 08:58N 49°09' W 123°00'0 0.0
2018-Apr-12 08:28N 49°09' W 123°00'0 0.0
2018-Apr-12 07:58N 49°09' W 123°00'0 0.0
2018-Apr-12 07:29N 49°09' W 123°00'0 0.0
2018-Apr-12 06:59N 49°09' W 123°00'0 0.1
2018-Apr-12 06:29N 49°09' W 123°00'0 0.0
2018-Apr-12 06:00N 49°09' W 123°00'0 0.0
2018-Apr-12 05:30N 49°09' W 123°00'0 0.0
2018-Apr-12 05:00N 49°09' W 123°00'0 0.0
2018-Apr-12 04:28N 49°09' W 123°00'0 0.0
2018-Apr-12 03:58N 49°09' W 123°00'0 0.0
2018-Apr-12 03:28N 49°09' W 123°00'0 0.0
2018-Apr-12 02:59N 49°09' W 123°00'0 0.0
2018-Apr-12 02:29N 49°09' W 123°00'0 0.0
2018-Apr-12 01:59N 49°09' W 123°00'0 0.0
2018-Apr-12 01:30N 49°09' W 123°00'0 0.0
2018-Apr-12 01:00N 49°09' W 123°00'0 0.0
2018-Apr-12 00:30N 49°09' W 123°00'0 0.0
2018-Apr-11 23:58N 49°09' W 123°00'0 0.0
2018-Apr-11 23:28N 49°09' W 123°00'0 0.0
2018-Apr-11 22:58N 49°09' W 123°00'0 0.0
2018-Apr-11 22:29N 49°09' W 123°00'0 0.0
2018-Apr-11 21:59N 49°09' W 123°00'0 0.0
2018-Apr-11 21:29N 49°09' W 123°00'0 0.0
2018-Apr-11 21:00N 49°09' W 123°00'0 0.0
2018-Apr-11 20:30N 49°09' W 123°00'0 0.0
2018-Apr-11 20:00N 49°09' W 123°00'0 0.0
2018-Apr-11 19:28N 49°09' W 123°00'0 0.0
2018-Apr-11 18:58N 49°09' W 123°00'0 0.0
2018-Apr-11 18:28N 49°09' W 123°00'0 0.0
2018-Apr-11 17:59N 49°09' W 123°00'0 0.0
2018-Apr-11 17:29N 49°09' W 123°00'0 0.0
2018-Apr-11 16:59N 49°09' W 123°00'0 0.0
2018-Apr-11 16:30N 49°09' W 123°00'0 0.0
2018-Apr-11 16:00N 49°09' W 123°00'0 0.0
2018-Apr-11 15:30N 49°09' W 123°00'0 0.0
2018-Apr-11 14:58N 49°09' W 123°00'0 0.0
2018-Apr-11 14:28N 49°09' W 123°00'0 0.0
2018-Apr-11 13:58N 49°09' W 123°00'0 0.0
2018-Apr-11 13:29N 49°09' W 123°00'0 0.0
2018-Apr-11 13:00N 49°09' W 123°00'0 0.1
2018-Apr-11 12:30N 49°09' W 123°00'0 0.2
2018-Apr-11 12:01N 49°09' W 123°00'1 1.9
2018-Apr-11 11:30N 49°09' W 123°02'3 5.0
2018-Apr-11 11:00N 49°07' W 123°05'3 5.3
2018-Apr-11 10:31N 49°06' W 123°08'3 5.8
2018-Apr-11 10:00N 49°08' W 123°12'3 5.0
2018-Apr-11 09:30N 49°07' W 123°16'3 6.2
2018-Apr-11 09:00N 49°05' W 123°19'10 6.6
2018-Apr-11 07:30N 48°58' W 123°09'62 6.5
2018-Apr-10 21:51N 47°59' W 122°35'3 9.2
2018-Apr-10 21:30N 47°57' W 122°32'4 8.5
2018-Apr-10 21:01N 47°54' W 122°28'4 9.0
2018-Apr-10 20:31N 47°49' W 122°27'4 9.0
2018-Apr-10 20:01N 47°45' W 122°26'5 9.1
2018-Apr-10 19:30N 47°41' W 122°27'4 8.2
2018-Apr-10 19:01N 47°37' W 122°24'3 5.3
2018-Apr-10 18:31N 47°35' W 122°22'  

Dump ship's entire track history